Disclaimer

Please do not use the information listed here in-flight or in-navigation, as they are not provided to us by the airports but are provided by volunteers, so they might be outdated.

Search


Regions


Airport information page

Radio informations:
AGADIR TWR - 119.5 MHz
AGADIR APP - 120.9 MHz

Airport informations:
Latitude: 30° 19' 29.99" N
Longitude: 009° 24' 47.04" W
Elevation: 250 feet - 76 meters
Operating hours: 24 hour operations
Operating agency: Civil government, landing fees and diplomatic clearance may be required
Timezone: UTC 0
Fuel: Jet A1, without icing nhibitor.

100/130 MIL Spec, low lead, aviation gasoline (BLUE)

Runway information:
10/28 - 10499 x 148 feet< - >3200 x 45 meters

Recent METARs:
GMAD 160930Z 06005KT CAVOK 13/10 Q1028 NOSIG
GMAD 161000Z 06006KT CAVOK 15/10 Q1028 NOSIG
GMAD 161030Z 06007KT CAVOK 17/11 Q1028 NOSIG

Airport on the map: